createdAt,value
2018-06-01T23:06:12.226Z,61.33
2018-06-01T23:06:33.752Z,61.10
2018-06-01T23:06:55.267Z,60.97
2018-06-01T23:07:16.792Z,61.04
2018-06-01T23:07:38.321Z,60.94
2018-06-01T23:07:59.826Z,60.95
2018-06-01T23:08:21.376Z,60.97
2018-06-01T23:08:44.790Z,60.87
2018-06-01T23:09:06.306Z,60.85
2018-06-01T23:09:27.820Z,60.77
2018-06-01T23:09:49.355Z,60.84
2018-06-01T23:10:10.874Z,60.72
2018-06-01T23:10:32.402Z,60.73
2018-06-01T23:10:53.913Z,60.85
2018-06-01T23:11:15.422Z,60.73
2018-06-01T23:11:36.948Z,60.80
2018-06-01T23:11:58.479Z,60.72
2018-06-01T23:12:20.008Z,60.72
2018-06-01T23:12:41.709Z,60.70
2018-06-01T23:13:03.246Z,60.75
2018-06-01T23:13:24.767Z,60.74
2018-06-01T23:13:46.270Z,60.68
2018-06-01T23:14:07.817Z,60.73
2018-06-01T23:14:29.335Z,60.82
2018-06-01T23:14:50.891Z,60.75
2018-06-01T23:15:12.395Z,60.77
2018-06-01T23:15:33.925Z,60.77
2018-06-01T23:15:55.451Z,60.72
2018-06-01T23:16:16.974Z,60.69
2018-06-01T23:16:38.486Z,60.73
2018-06-01T23:17:00.029Z,60.72
2018-06-01T23:17:21.553Z,60.74
2018-06-01T23:17:43.075Z,60.78
2018-06-01T23:18:04.588Z,60.78
2018-06-01T23:18:26.102Z,60.72
2018-06-01T23:18:47.633Z,60.76
2018-06-01T23:19:09.143Z,60.72
2018-06-01T23:19:30.651Z,60.73
2018-06-01T23:19:53.190Z,60.62
2018-06-01T23:20:14.713Z,60.67
2018-06-01T23:20:36.224Z,60.69
2018-06-01T23:20:57.738Z,60.58
2018-06-01T23:21:19.263Z,60.61
2018-06-01T23:21:40.771Z,60.62
2018-06-01T23:22:02.292Z,60.74
2018-06-01T23:22:23.799Z,60.74
2018-06-01T23:22:45.327Z,60.71
2018-06-01T23:23:07.412Z,60.71
2018-06-01T23:23:28.929Z,60.75
2018-06-01T23:23:50.439Z,60.70
2018-06-01T23:24:11.969Z,60.68
2018-06-01T23:24:33.483Z,60.64
2018-06-01T23:24:55.022Z,60.64
2018-06-01T23:25:16.540Z,60.62
2018-06-01T23:25:38.047Z,60.60
2018-06-01T23:25:59.564Z,60.60
2018-06-01T23:26:21.089Z,60.59
2018-06-01T23:26:42.626Z,60.60
2018-06-01T23:27:04.153Z,60.54
2018-06-01T23:27:25.680Z,60.56
2018-06-01T23:27:47.194Z,60.53
2018-06-01T23:28:08.715Z,60.55
2018-06-01T23:28:30.233Z,60.65
2018-06-01T23:28:51.748Z,60.65
2018-06-01T23:29:13.268Z,60.67
2018-06-01T23:29:34.804Z,60.62
2018-06-01T23:29:56.339Z,60.66
2018-06-01T23:30:17.858Z,60.65
2018-06-01T23:30:39.372Z,60.68
2018-06-01T23:31:00.892Z,60.65
2018-06-01T23:31:22.418Z,61.24
2018-06-01T23:31:43.941Z,60.90
2018-06-01T23:32:05.459Z,60.78
2018-06-01T23:32:26.969Z,60.67
2018-06-01T23:32:48.513Z,60.64
2018-06-01T23:33:10.033Z,60.57
2018-06-01T23:33:31.567Z,60.55
2018-06-01T23:33:53.085Z,60.62
2018-06-01T23:34:14.607Z,60.61
2018-06-01T23:34:36.123Z,60.57
2018-06-01T23:34:57.643Z,60.56
2018-06-01T23:35:19.167Z,60.59
2018-06-01T23:35:40.695Z,60.53
2018-06-01T23:36:02.223Z,60.53
2018-06-01T23:36:23.738Z,60.54
2018-06-01T23:36:45.261Z,60.52
2018-06-01T23:37:06.783Z,60.54
2018-06-01T23:37:28.372Z,60.53
2018-06-01T23:37:49.962Z,60.55
2018-06-01T23:38:11.485Z,60.56
2018-06-01T23:38:33.016Z,60.48
2018-06-01T23:38:54.552Z,60.49
2018-06-01T23:39:16.076Z,60.53
2018-06-01T23:39:37.610Z,60.57
2018-06-01T23:39:59.133Z,60.62
2018-06-01T23:40:20.640Z,60.57
2018-06-01T23:40:42.169Z,60.65
2018-06-01T23:41:03.738Z,60.63
2018-06-01T23:41:25.273Z,60.63
2018-06-01T23:41:46.779Z,60.76
2018-06-01T23:42:08.300Z,60.73
2018-06-01T23:42:29.832Z,60.79
2018-06-01T23:42:51.343Z,60.71
2018-06-01T23:43:12.852Z,60.70
2018-06-01T23:43:34.381Z,60.66
2018-06-01T23:43:55.889Z,60.66
2018-06-01T23:44:17.408Z,60.66
2018-06-01T23:44:38.929Z,60.63
2018-06-01T23:45:00.465Z,60.64
2018-06-01T23:45:21.970Z,60.71
2018-06-01T23:45:43.492Z,60.72
2018-06-01T23:46:05.026Z,60.67
2018-06-01T23:46:26.538Z,60.80
2018-06-01T23:46:48.052Z,60.81
2018-06-01T23:47:09.572Z,60.77
2018-06-01T23:47:31.078Z,60.74
2018-06-01T23:47:52.595Z,60.79
2018-06-01T23:48:14.112Z,60.70
2018-06-01T23:48:35.678Z,60.74
2018-06-01T23:48:57.201Z,60.72
2018-06-01T23:49:18.710Z,60.66
2018-06-01T23:49:40.224Z,60.71
2018-06-01T23:50:01.765Z,60.72
2018-06-01T23:50:23.292Z,60.72
2018-06-01T23:50:44.816Z,60.69
2018-06-01T23:51:06.348Z,60.74
2018-06-01T23:51:27.880Z,60.73
2018-06-01T23:51:49.388Z,60.71
2018-06-01T23:52:10.905Z,60.73
2018-06-01T23:52:32.435Z,60.80
2018-06-01T23:52:53.943Z,60.82
2018-06-01T23:53:15.455Z,60.81
2018-06-01T23:53:36.970Z,60.79
2018-06-01T23:53:58.485Z,60.80
2018-06-01T23:54:20.051Z,60.79
2018-06-01T23:54:41.564Z,60.78
2018-06-01T23:55:03.101Z,60.79
2018-06-01T23:55:24.620Z,60.82
2018-06-01T23:55:46.135Z,60.85
2018-06-01T23:56:07.644Z,60.84
2018-06-01T23:56:29.150Z,60.84
2018-06-01T23:56:50.667Z,60.80
2018-06-01T23:57:12.183Z,60.75
2018-06-01T23:57:33.700Z,60.77
2018-06-01T23:57:55.206Z,60.84
2018-06-01T23:58:16.727Z,60.79
2018-06-01T23:58:38.248Z,60.91
2018-06-01T23:58:59.772Z,60.93
2018-06-01T23:59:21.292Z,61.00
2018-06-01T23:59:42.813Z,60.99
